createdAt,value
2023-03-06T00:00:09.713Z,2.11
2023-03-06T00:01:09.756Z,2.03
2023-03-06T00:02:09.768Z,2.06
2023-03-06T00:03:09.820Z,2.12
2023-03-06T00:04:09.896Z,2.07
2023-03-06T00:05:09.869Z,1.97
2023-03-06T00:06:09.980Z,2.05
2023-03-06T00:07:09.888Z,2.08
2023-03-06T00:08:09.929Z,2.03
2023-03-06T00:09:09.974Z,2.04
2023-03-06T00:10:10.023Z,2.06
2023-03-06T00:11:10.063Z,2.05
2023-03-06T00:12:10.063Z,2.00
2023-03-06T00:13:10.081Z,2.02
2023-03-06T00:14:10.127Z,1.91
2023-03-06T00:15:10.152Z,2.03
2023-03-06T00:16:10.168Z,1.99
2023-03-06T00:17:10.174Z,1.96
2023-03-06T00:18:10.204Z,1.92
2023-03-06T00:19:10.226Z,1.95
2023-03-06T00:20:10.257Z,1.99
2023-03-06T00:21:10.261Z,1.95
2023-03-06T00:22:10.330Z,1.94
2023-03-06T00:23:10.346Z,2.01
2023-03-06T00:24:10.383Z,1.97
2023-03-06T00:25:10.433Z,2.00
2023-03-06T00:26:10.462Z,2.02
2023-03-06T00:27:10.541Z,2.02
2023-03-06T00:28:10.589Z,1.99
2023-03-06T00:29:10.616Z,1.92
2023-03-06T00:30:10.675Z,1.94
2023-03-06T00:31:10.742Z,1.97
2023-03-06T00:32:10.774Z,2.02
2023-03-06T00:33:10.787Z,2.01
2023-03-06T00:34:10.827Z,2.03
2023-03-06T00:35:10.825Z,1.94
2023-03-06T00:36:10.872Z,1.99
2023-03-06T00:37:10.920Z,1.97
2023-03-06T00:38:10.901Z,2.01
2023-03-06T00:39:10.908Z,2.00
2023-03-06T00:40:10.971Z,2.00
2023-03-06T00:41:10.927Z,1.99
2023-03-06T00:42:11.649Z,2.03
2023-03-06T00:43:10.986Z,1.99
2023-03-06T00:44:11.005Z,1.94
2023-03-06T00:45:11.045Z,1.97
2023-03-06T00:46:11.137Z,1.98
2023-03-06T00:47:11.103Z,1.98
2023-03-06T00:48:11.111Z,2.02
2023-03-06T00:49:11.085Z,2.06
2023-03-06T00:50:11.150Z,2.13
2023-03-06T00:51:13.862Z,2.07
2023-03-06T00:52:11.097Z,2.12
2023-03-06T00:53:11.102Z,2.08
2023-03-06T00:54:11.078Z,2.06
2023-03-06T00:55:11.116Z,2.03
2023-03-06T00:56:11.042Z,1.96
2023-03-06T00:57:11.058Z,2.02
2023-03-06T00:58:11.044Z,1.98
2023-03-06T00:59:11.025Z,2.01
2023-03-06T01:00:11.018Z,2.02
2023-03-06T01:01:11.058Z,2.04
2023-03-06T01:02:11.103Z,2.06
2023-03-06T01:03:11.013Z,2.00
2023-03-06T01:04:10.985Z,2.02
2023-03-06T01:05:10.956Z,2.08
2023-03-06T01:06:10.951Z,2.15
2023-03-06T01:07:10.931Z,2.04
2023-03-06T01:08:10.951Z,2.06
2023-03-06T01:09:10.929Z,2.05
2023-03-06T01:10:10.928Z,2.04
2023-03-06T01:11:10.930Z,2.11
2023-03-06T01:12:10.897Z,2.05
2023-03-06T01:13:10.907Z,2.02
2023-03-06T01:14:10.875Z,2.07
2023-03-06T01:15:10.892Z,2.07
2023-03-06T01:16:10.912Z,2.13
2023-03-06T01:17:10.889Z,2.08
2023-03-06T01:18:10.869Z,2.04
2023-03-06T01:19:10.922Z,1.99
2023-03-06T01:20:10.855Z,2.05
2023-03-06T01:21:10.848Z,2.06
2023-03-06T01:22:10.795Z,2.00
2023-03-06T01:23:10.804Z,1.99
2023-03-06T01:24:10.799Z,1.97
2023-03-06T01:25:10.793Z,2.02
2023-03-06T01:26:10.766Z,2.04
2023-03-06T01:27:10.777Z,1.99
2023-03-06T01:28:10.766Z,2.01
2023-03-06T01:29:10.752Z,1.99
2023-03-06T01:30:10.722Z,1.98
2023-03-06T01:31:10.728Z,2.01
2023-03-06T01:32:10.737Z,1.95
2023-03-06T01:33:10.700Z,1.93
2023-03-06T01:34:10.711Z,1.91
2023-03-06T01:35:10.716Z,1.94
2023-03-06T01:36:10.658Z,1.93
2023-03-06T01:37:10.666Z,1.85
2023-03-06T01:38:10.661Z,1.89
2023-03-06T01:39:10.666Z,1.84
2023-03-06T01:40:10.631Z,1.88
2023-03-06T01:41:10.656Z,1.91
2023-03-06T01:42:10.664Z,1.90
2023-03-06T01:43:10.654Z,1.93
2023-03-06T01:44:10.629Z,1.92
2023-03-06T01:45:10.620Z,1.88
2023-03-06T01:46:10.712Z,1.87
2023-03-06T01:47:10.595Z,1.80
2023-03-06T01:48:10.617Z,1.84
2023-03-06T01:49:10.568Z,1.90
2023-03-06T01:50:10.588Z,1.84
2023-03-06T01:51:10.553Z,1.84
2023-03-06T01:52:10.553Z,1.85
2023-03-06T01:53:10.577Z,1.80
2023-03-06T01:54:10.623Z,1.83
2023-03-06T01:55:10.625Z,1.83
2023-03-06T01:56:10.674Z,1.77
2023-03-06T01:57:10.699Z,1.79
2023-03-06T01:58:10.666Z,1.76
2023-03-06T01:59:10.716Z,1.78
2023-03-06T02:00:10.747Z,1.78
2023-03-06T02:01:10.786Z,1.80
2023-03-06T02:02:10.831Z,1.84
2023-03-06T02:03:10.799Z,1.80
2023-03-06T02:04:10.822Z,1.78
2023-03-06T02:05:10.823Z,1.84
2023-03-06T02:06:10.820Z,1.79
2023-03-06T02:07:10.867Z,1.88
2023-03-06T02:08:10.899Z,1.99
2023-03-06T02:09:10.972Z,2.06
2023-03-06T02:10:11.003Z,2.13
2023-03-06T02:11:11.070Z,2.06
2023-03-06T02:12:11.092Z,2.10
2023-03-06T02:13:11.114Z,2.08
2023-03-06T02:14:11.170Z,2.10
2023-03-06T02:15:11.676Z,2.07
2023-03-06T02:16:11.234Z,2.11
2023-03-06T02:17:11.270Z,2.05
2023-03-06T02:18:11.294Z,2.08
2023-03-06T02:19:11.348Z,2.06
2023-03-06T02:20:11.414Z,2.06
2023-03-06T02:21:11.475Z,2.06
2023-03-06T02:22:11.493Z,2.07
2023-03-06T02:23:11.510Z,2.07
2023-03-06T02:24:11.546Z,2.09
2023-03-06T02:25:11.616Z,2.12
2023-03-06T02:26:11.625Z,2.17
2023-03-06T02:27:12.199Z,2.12
2023-03-06T02:28:11.675Z,2.14
2023-03-06T02:29:11.735Z,2.13
2023-03-06T02:30:11.749Z,2.13
2023-03-06T02:31:11.813Z,2.16
2023-03-06T02:32:11.845Z,2.11
2023-03-06T02:33:11.828Z,2.17
2023-03-06T02:34:11.843Z,2.11
2023-03-06T02:35:11.899Z,2.18
2023-03-06T02:36:11.907Z,2.17
2023-03-06T02:37:11.939Z,2.20
2023-03-06T02:38:11.959Z,2.13
2023-03-06T02:39:11.978Z,2.17
2023-03-06T02:40:12.015Z,2.21
2023-03-06T02:41:12.044Z,2.15
2023-03-06T02:42:12.046Z,2.17
2023-03-06T02:43:12.057Z,2.17
2023-03-06T02:44:12.092Z,2.11
2023-03-06T02:45:12.134Z,2.10
2023-03-06T02:46:12.333Z,2.16
2023-03-06T02:47:12.188Z,2.20
2023-03-06T02:48:12.212Z,2.16
2023-03-06T02:49:12.209Z,2.15
2023-03-06T02:50:12.223Z,2.19
2023-03-06T02:51:12.281Z,2.14
2023-03-06T02:52:12.249Z,2.15
2023-03-06T02:53:12.282Z,2.14
2023-03-06T02:54:12.328Z,2.09
2023-03-06T02:55:12.359Z,2.10
2023-03-06T02:56:12.338Z,2.12
2023-03-06T02:57:12.416Z,2.14
2023-03-06T02:58:12.413Z,2.12
2023-03-06T02:59:12.410Z,2.02
2023-03-06T03:00:12.430Z,2.06
2023-03-06T03:01:12.497Z,2.07
2023-03-06T03:02:12.466Z,2.13
2023-03-06T03:03:12.487Z,2.10
2023-03-06T03:04:12.536Z,2.11
2023-03-06T03:05:12.537Z,2.08
2023-03-06T03:06:12.582Z,2.06
2023-03-06T03:07:12.572Z,2.10
2023-03-06T03:08:12.586Z,2.08
2023-03-06T03:09:12.597Z,2.11
2023-03-06T03:10:12.612Z,2.10
2023-03-06T03:11:12.619Z,2.07
2023-03-06T03:12:12.637Z,2.06
2023-03-06T03:13:12.656Z,2.06
2023-03-06T03:14:12.738Z,2.06
2023-03-06T03:15:12.668Z,2.09
2023-03-06T03:16:12.703Z,2.15
2023-03-06T03:17:12.690Z,2.11
2023-03-06T03:18:12.680Z,2.12
2023-03-06T03:19:12.742Z,2.14
2023-03-06T03:20:12.746Z,2.19
2023-03-06T03:21:12.778Z,2.22
2023-03-06T03:22:12.788Z,2.20
2023-03-06T03:23:12.786Z,2.20
2023-03-06T03:24:12.807Z,2.27
2023-03-06T03:25:12.823Z,2.22
2023-03-06T03:26:12.840Z,2.21
2023-03-06T03:27:12.861Z,2.24
2023-03-06T03:28:12.857Z,2.30
2023-03-06T03:29:12.880Z,2.22
2023-03-06T03:30:12.893Z,2.24
2023-03-06T03:31:12.953Z,2.31
2023-03-06T03:32:12.939Z,2.29
2023-03-06T03:33:12.964Z,2.30
2023-03-06T03:34:12.964Z,2.31
2023-03-06T03:35:12.991Z,2.34
2023-03-06T03:36:12.988Z,2.36
2023-03-06T03:37:13.012Z,2.34
2023-03-06T03:38:13.006Z,2.39
2023-03-06T03:39:13.001Z,2.33
2023-03-06T03:40:13.054Z,2.36
2023-03-06T03:41:13.084Z,2.36
2023-03-06T03:42:13.051Z,2.41
2023-03-06T03:43:13.028Z,2.36
2023-03-06T03:44:13.083Z,2.42
2023-03-06T03:45:13.086Z,2.37
2023-03-06T03:46:13.090Z,2.38
2023-03-06T03:47:13.080Z,2.36
2023-03-06T03:48:13.071Z,2.36
2023-03-06T03:49:13.092Z,2.36
2023-03-06T03:50:13.102Z,2.38
2023-03-06T03:51:13.071Z,2.37
2023-03-06T03:52:13.093Z,2.35
2023-03-06T03:53:13.112Z,2.35
2023-03-06T03:54:13.153Z,2.35
2023-03-06T03:55:13.120Z,2.33
2023-03-06T03:56:13.141Z,2.35
2023-03-06T03:57:13.146Z,2.35
2023-03-06T03:58:13.152Z,2.30
2023-03-06T03:59:13.171Z,2.35
2023-03-06T04:00:13.181Z,2.30
2023-03-06T04:01:13.168Z,2.36
2023-03-06T04:02:13.222Z,2.32
2023-03-06T04:03:13.201Z,2.33
2023-03-06T04:04:13.207Z,2.29
2023-03-06T04:05:13.247Z,2.30
2023-03-06T04:06:13.183Z,2.23
2023-03-06T04:07:13.210Z,2.31
2023-03-06T04:08:13.206Z,2.26
2023-03-06T04:09:13.211Z,2.27
2023-03-06T04:10:13.217Z,2.28
2023-03-06T04:11:13.211Z,2.32
2023-03-06T04:12:13.244Z,2.30
2023-03-06T04:13:13.239Z,2.29
2023-03-06T04:14:13.227Z,2.29
2023-03-06T04:15:13.242Z,2.31
2023-03-06T04:16:13.301Z,2.27
2023-03-06T04:17:13.248Z,2.31
2023-03-06T04:18:13.229Z,2.32
2023-03-06T04:19:13.236Z,2.39
2023-03-06T04:20:13.224Z,2.35
2023-03-06T04:21:13.227Z,2.28
2023-03-06T04:22:13.248Z,2.25
2023-03-06T04:23:13.227Z,2.25
2023-03-06T04:24:13.245Z,2.29
2023-03-06T04:25:13.236Z,2.31
2023-03-06T04:26:13.227Z,2.29
2023-03-06T04:27:13.220Z,2.28
2023-03-06T04:28:13.222Z,2.27
2023-03-06T04:29:13.254Z,2.25
2023-03-06T04:30:13.234Z,2.28
2023-03-06T04:31:13.293Z,2.22
2023-03-06T04:32:13.306Z,2.26
2023-03-06T04:33:13.254Z,2.21
2023-03-06T04:34:13.289Z,2.22
2023-03-06T04:35:13.273Z,2.23
2023-03-06T04:36:13.257Z,2.24
2023-03-06T04:37:13.260Z,2.29
2023-03-06T04:38:13.277Z,2.25
2023-03-06T04:39:13.290Z,2.21
2023-03-06T04:40:13.288Z,2.18
2023-03-06T04:41:13.288Z,2.22
2023-03-06T04:42:13.329Z,2.18
2023-03-06T04:43:13.315Z,2.22
2023-03-06T04:44:13.318Z,2.20
2023-03-06T04:45:13.288Z,2.17
2023-03-06T04:46:13.332Z,2.15
2023-03-06T04:47:13.313Z,2.16
2023-03-06T04:48:13.294Z,2.08
2023-03-06T04:49:13.325Z,2.05
2023-03-06T04:50:13.336Z,2.11
2023-03-06T04:51:13.348Z,2.13
2023-03-06T04:52:13.362Z,2.10
2023-03-06T04:53:13.317Z,2.11
2023-03-06T04:54:13.333Z,2.12
2023-03-06T04:55:13.357Z,2.13
2023-03-06T04:56:13.336Z,2.09
2023-03-06T04:57:13.359Z,2.11
2023-03-06T04:58:13.360Z,2.12
2023-03-06T04:59:13.386Z,2.10
2023-03-06T05:00:13.397Z,2.09
2023-03-06T05:01:13.427Z,2.11
2023-03-06T05:02:13.394Z,2.19
2023-03-06T05:03:13.390Z,2.10
2023-03-06T05:04:13.378Z,2.11
2023-03-06T05:05:13.342Z,2.14
2023-03-06T05:06:13.357Z,2.10
2023-03-06T05:07:13.344Z,2.11
2023-03-06T05:08:13.338Z,2.13
2023-03-06T05:09:13.354Z,2.09
2023-03-06T05:10:13.364Z,2.11
2023-03-06T05:11:13.351Z,2.10
2023-03-06T05:12:13.332Z,2.10
2023-03-06T05:13:13.376Z,2.12
2023-03-06T05:14:13.377Z,2.09
2023-03-06T05:15:13.338Z,2.11
2023-03-06T05:16:13.390Z,2.10
2023-03-06T05:17:13.357Z,2.12
2023-03-06T05:18:13.371Z,2.06
2023-03-06T05:19:13.371Z,2.10
2023-03-06T05:20:13.343Z,2.11
2023-03-06T05:21:13.344Z,2.06
2023-03-06T05:22:13.358Z,2.06
2023-03-06T05:23:13.393Z,2.09
2023-03-06T05:24:13.351Z,2.10
2023-03-06T05:25:13.369Z,2.05
2023-03-06T05:26:13.328Z,2.05
2023-03-06T05:27:15.205Z,2.06
2023-03-06T05:28:13.344Z,2.11
2023-03-06T05:29:13.326Z,2.11
2023-03-06T05:30:13.305Z,2.09
2023-03-06T05:31:13.295Z,2.09
2023-03-06T05:32:13.412Z,2.05
2023-03-06T05:33:13.261Z,2.08
2023-03-06T05:34:13.224Z,2.07
2023-03-06T05:35:13.470Z,2.11
2023-03-06T05:36:13.170Z,2.08
2023-03-06T05:37:13.170Z,2.05
2023-03-06T05:38:13.140Z,2.08
2023-03-06T05:39:13.146Z,2.08
2023-03-06T05:40:13.099Z,2.04
2023-03-06T05:41:13.086Z,2.02
2023-03-06T05:42:13.050Z,2.06
2023-03-06T05:43:13.048Z,2.07
2023-03-06T05:44:12.993Z,2.09
2023-03-06T05:45:12.985Z,2.10
2023-03-06T05:46:13.039Z,2.01
2023-03-06T05:47:12.941Z,2.03
2023-03-06T05:48:12.931Z,2.11
2023-03-06T05:49:12.914Z,2.03
2023-03-06T05:50:12.862Z,2.09
2023-03-06T05:51:12.848Z,2.03
2023-03-06T05:52:12.809Z,2.05
2023-03-06T05:53:12.806Z,2.09
2023-03-06T05:54:12.746Z,2.08
2023-03-06T05:55:12.742Z,2.03
2023-03-06T05:56:12.715Z,2.04
2023-03-06T05:57:12.735Z,2.09
2023-03-06T05:58:12.630Z,2.08
2023-03-06T05:59:12.641Z,2.05
2023-03-06T06:00:12.598Z,2.14
2023-03-06T06:01:19.774Z,2.05
2023-03-06T06:02:12.606Z,2.06
2023-03-06T06:03:12.611Z,2.06
2023-03-06T06:04:12.544Z,2.07
2023-03-06T06:05:13.169Z,2.06
2023-03-06T06:06:12.501Z,2.10
2023-03-06T06:07:12.471Z,2.05
2023-03-06T06:08:12.422Z,2.13
2023-03-06T06:09:13.966Z,2.11
2023-03-06T06:10:12.477Z,2.11
2023-03-06T06:11:12.466Z,2.07
2023-03-06T06:12:12.442Z,2.06
2023-03-06T06:13:12.424Z,2.08
2023-03-06T06:14:12.343Z,2.12
2023-03-06T06:15:12.308Z,2.09
2023-03-06T06:16:12.387Z,2.09
2023-03-06T06:17:12.266Z,2.13
2023-03-06T06:18:12.258Z,2.13
2023-03-06T06:19:12.214Z,2.09
2023-03-06T06:20:12.228Z,2.08
2023-03-06T06:21:12.231Z,2.12
2023-03-06T06:22:12.198Z,2.05
2023-03-06T06:23:12.139Z,2.11
2023-03-06T06:24:12.124Z,2.07
2023-03-06T06:25:12.101Z,2.10
2023-03-06T06:26:12.119Z,2.10
2023-03-06T06:27:12.079Z,2.09
2023-03-06T06:28:12.079Z,2.13
2023-03-06T06:29:12.040Z,2.11
2023-03-06T06:30:12.803Z,2.12
2023-03-06T06:31:12.304Z,2.09
2023-03-06T06:32:12.045Z,2.14
2023-03-06T06:33:12.013Z,2.48
2023-03-06T06:34:11.967Z,3.01
2023-03-06T06:35:11.938Z,3.90
2023-03-06T06:36:12.331Z,4.07
2023-03-06T06:37:11.937Z,3.70
2023-03-06T06:38:12.062Z,3.71
2023-03-06T06:39:11.892Z,3.50
2023-03-06T06:40:11.896Z,3.29
2023-03-06T06:41:38.937Z,3.04
2023-03-06T06:42:30.493Z,3.02
2023-03-06T06:43:12.841Z,3.01
2023-03-06T06:44:11.859Z,2.81
2023-03-06T06:45:11.862Z,2.86
2023-03-06T06:46:53.384Z,2.94
2023-03-06T06:47:28.148Z,3.06
2023-03-06T06:48:12.898Z,3.07
2023-03-06T06:49:11.862Z,3.14
2023-03-06T06:50:11.864Z,3.29
2023-03-06T06:51:11.785Z,3.42
2023-03-06T06:52:11.884Z,3.77
2023-03-06T06:53:11.753Z,3.78
2023-03-06T06:54:11.735Z,3.80
2023-03-06T06:55:11.718Z,3.89
2023-03-06T06:56:11.673Z,4.10
2023-03-06T06:57:11.830Z,4.04
2023-03-06T06:58:11.679Z,4.04
2023-03-06T06:59:17.152Z,4.33
2023-03-06T07:00:12.613Z,4.34
2023-03-06T07:01:11.625Z,4.37
2023-03-06T07:02:11.562Z,4.51
2023-03-06T07:03:11.535Z,4.64
2023-03-06T07:04:11.563Z,5.09
2023-03-06T07:05:11.516Z,5.47
2023-03-06T07:06:11.502Z,5.54
2023-03-06T07:07:11.477Z,5.70
2023-03-06T07:08:11.445Z,5.92
2023-03-06T07:09:11.435Z,6.27
2023-03-06T07:10:11.417Z,6.47
2023-03-06T07:11:11.380Z,6.70
2023-03-06T07:12:11.377Z,6.94
2023-03-06T07:13:11.426Z,7.00
2023-03-06T07:14:11.505Z,7.11
2023-03-06T07:15:11.477Z,7.46
2023-03-06T07:16:12.489Z,7.55
2023-03-06T07:17:11.823Z,7.92
2023-03-06T07:18:11.583Z,8.19
2023-03-06T07:19:11.569Z,8.09
2023-03-06T07:20:11.598Z,8.44
2023-03-06T07:21:11.649Z,8.72
2023-03-06T07:22:11.668Z,8.80
2023-03-06T07:23:11.672Z,8.99
2023-03-06T07:24:11.676Z,9.18
2023-03-06T07:25:11.670Z,9.34
2023-03-06T07:26:11.737Z,9.45
2023-03-06T07:27:11.742Z,9.91
2023-03-06T07:28:11.756Z,9.81
2023-03-06T07:29:11.780Z,10.20
2023-03-06T07:30:11.775Z,10.41
2023-03-06T07:31:11.810Z,10.47
2023-03-06T07:32:11.810Z,10.83
2023-03-06T07:33:11.796Z,11.05
2023-03-06T07:34:11.801Z,11.13
2023-03-06T07:35:19.687Z,11.14
2023-03-06T07:36:13.925Z,11.17
2023-03-06T07:37:11.865Z,11.30
2023-03-06T07:38:11.734Z,11.79
2023-03-06T07:39:11.673Z,11.97
2023-03-06T07:40:11.745Z,12.25
2023-03-06T07:41:11.638Z,12.31
2023-03-06T07:42:11.592Z,11.72
2023-03-06T07:43:19.029Z,11.89
2023-03-06T07:44:12.600Z,11.92
2023-03-06T07:45:11.551Z,12.07
2023-03-06T07:46:11.554Z,12.08
2023-03-06T07:47:11.557Z,12.61
2023-03-06T07:48:11.454Z,13.14
2023-03-06T07:49:11.403Z,13.16
2023-03-06T07:50:11.373Z,13.41
2023-03-06T07:51:11.344Z,13.47
2023-03-06T07:52:11.353Z,13.71
2023-03-06T07:53:11.655Z,13.87
2023-03-06T07:54:11.286Z,14.15
2023-03-06T07:55:11.240Z,15.08
2023-03-06T07:56:11.194Z,14.32
2023-03-06T07:57:11.398Z,13.04
2023-03-06T07:58:11.197Z,12.64
2023-03-06T07:59:11.230Z,12.30
2023-03-06T08:00:11.179Z,11.89
2023-03-06T08:01:11.232Z,11.44
2023-03-06T08:02:11.229Z,11.45
2023-03-06T08:03:11.258Z,11.25
2023-03-06T08:04:11.254Z,11.31
2023-03-06T08:05:11.292Z,10.73
2023-03-06T08:06:11.296Z,10.45
2023-03-06T08:07:11.384Z,10.05
2023-03-06T08:08:11.370Z,9.84
2023-03-06T08:09:11.331Z,9.72
2023-03-06T08:10:11.324Z,9.24
2023-03-06T08:11:11.409Z,9.50
2023-03-06T08:12:11.356Z,9.07
2023-03-06T08:13:11.414Z,8.93
2023-03-06T08:14:11.429Z,8.73
2023-03-06T08:15:11.524Z,8.68
2023-03-06T08:16:11.495Z,8.48
2023-03-06T08:17:11.890Z,8.43
2023-03-06T08:18:11.512Z,8.18
2023-03-06T08:19:11.551Z,8.01
2023-03-06T08:20:11.556Z,7.94
2023-03-06T08:21:11.551Z,7.72
2023-03-06T08:22:11.600Z,7.63
2023-03-06T08:23:11.584Z,7.66
2023-03-06T08:24:11.620Z,7.40
2023-03-06T08:25:11.646Z,7.36
2023-03-06T08:26:11.678Z,7.59
2023-03-06T08:27:11.666Z,7.44
2023-03-06T08:28:11.664Z,7.31
2023-03-06T08:29:11.714Z,6.95
2023-03-06T08:30:11.742Z,6.99
2023-03-06T08:31:11.763Z,6.92
2023-03-06T08:32:11.984Z,6.95
2023-03-06T08:33:11.889Z,5.93
2023-03-06T08:34:12.165Z,2.26
2023-03-06T08:35:11.864Z,1.48
2023-03-06T08:36:11.906Z,1.26
2023-03-06T08:37:12.657Z,1.53
2023-03-06T08:38:12.024Z,1.97
2023-03-06T08:39:11.986Z,2.15
2023-03-06T08:40:12.012Z,2.29
2023-03-06T08:41:12.071Z,2.48
2023-03-06T08:42:12.085Z,3.30
2023-03-06T08:43:14.117Z,3.44
2023-03-06T08:44:12.203Z,4.50
2023-03-06T08:45:12.179Z,5.51
2023-03-06T08:46:12.234Z,6.05
2023-03-06T08:47:12.276Z,6.63
2023-03-06T08:48:12.405Z,7.21
2023-03-06T08:49:12.306Z,7.75
2023-03-06T08:50:12.293Z,8.25
2023-03-06T08:51:12.405Z,8.66
2023-03-06T08:52:12.411Z,8.94
2023-03-06T08:53:12.901Z,9.10
2023-03-06T08:54:12.464Z,8.99
2023-03-06T08:56:12.518Z,9.50
2023-03-06T08:57:12.517Z,9.82
2023-03-06T08:58:12.464Z,9.76
2023-03-06T08:59:12.533Z,10.00
2023-03-06T09:00:12.508Z,10.25
2023-03-06T09:01:12.521Z,10.60
2023-03-06T09:02:12.487Z,10.69
2023-03-06T09:03:12.884Z,11.04
2023-03-06T09:04:12.565Z,11.41
2023-03-06T09:41:13.036Z,4.42
2023-03-06T09:42:12.952Z,4.64
2023-03-06T09:43:12.997Z,4.88
2023-03-06T09:44:13.040Z,4.98
2023-03-06T09:45:13.105Z,5.00
2023-03-06T09:46:13.205Z,4.91
2023-03-06T09:47:13.227Z,5.02
2023-03-06T09:48:13.236Z,4.75
2023-03-06T09:49:13.299Z,4.61
2023-03-06T09:50:13.344Z,4.70
2023-03-06T09:51:13.367Z,4.65
2023-03-06T09:52:13.367Z,4.71
2023-03-06T09:53:13.377Z,4.60
2023-03-06T09:54:13.431Z,4.70
2023-03-06T09:55:13.450Z,4.91
2023-03-06T09:56:13.419Z,5.18
2023-03-06T09:57:13.440Z,5.04
2023-03-06T09:58:13.458Z,4.90
2023-03-06T09:59:13.493Z,5.10
2023-03-06T10:00:13.494Z,4.86
2023-03-06T10:01:13.528Z,5.13
2023-03-06T10:02:13.670Z,5.37
2023-03-06T10:03:13.658Z,5.29
2023-03-06T10:04:13.594Z,5.27
2023-03-06T10:05:13.661Z,5.75
2023-03-06T10:06:13.709Z,5.78
2023-03-06T10:07:13.598Z,5.89
2023-03-06T10:08:13.934Z,6.07
2023-03-06T10:09:13.574Z,6.49
2023-03-06T10:10:13.623Z,6.43
2023-03-06T10:11:13.633Z,6.64
2023-03-06T10:12:13.577Z,6.80
2023-03-06T10:13:13.601Z,6.93
2023-03-06T10:14:13.607Z,7.09
2023-03-06T10:15:13.606Z,7.38
2023-03-06T10:16:13.642Z,7.90
2023-03-06T10:17:13.600Z,8.00
2023-03-06T10:18:13.622Z,8.09
2023-03-06T10:19:13.615Z,8.17
2023-03-06T10:20:13.605Z,8.37
2023-03-06T10:21:19.231Z,8.57
2023-03-06T10:22:14.921Z,8.58
2023-03-06T10:23:14.029Z,8.65
2023-03-06T10:24:13.480Z,8.75
2023-03-06T10:25:13.449Z,8.86
2023-03-06T10:26:13.495Z,9.09
2023-03-06T10:27:13.501Z,9.13
2023-03-06T10:28:13.355Z,9.33
2023-03-06T10:29:13.339Z,8.96
2023-03-06T10:30:13.316Z,9.16
2023-03-06T10:31:13.296Z,9.12
2023-03-06T10:32:13.970Z,9.27
2023-03-06T10:33:13.194Z,9.31
2023-03-06T10:35:13.147Z,9.54
2023-03-06T11:43:12.277Z,14.51
2023-03-06T11:46:12.195Z,13.93
2023-03-06T11:47:12.089Z,13.93
2023-03-06T11:48:12.089Z,13.55
2023-03-06T11:50:11.968Z,12.49
2023-03-06T11:51:11.932Z,12.70
2023-03-06T11:52:11.881Z,12.82
2023-03-06T11:53:11.897Z,11.92
2023-03-06T11:54:11.818Z,11.23
2023-03-06T11:56:11.740Z,11.21
2023-03-06T11:57:11.714Z,10.50
2023-03-06T11:58:11.653Z,9.84
2023-03-06T11:59:11.642Z,9.65
2023-03-06T12:01:11.575Z,8.84
2023-03-06T12:02:11.667Z,9.03
2023-03-06T12:03:11.478Z,8.94
2023-03-06T12:04:11.455Z,8.20
2023-03-06T12:05:11.499Z,7.73
2023-03-06T12:06:11.393Z,7.84
2023-03-06T12:07:11.348Z,7.73
2023-03-06T12:08:11.347Z,7.21
2023-03-06T12:09:11.338Z,7.33
2023-03-06T12:10:11.247Z,6.63
2023-03-06T12:11:11.239Z,6.56
2023-03-06T12:12:11.175Z,6.61
2023-03-06T12:13:11.127Z,6.26
2023-03-06T12:14:11.111Z,5.95
2023-03-06T12:16:11.079Z,5.87
2023-03-06T12:17:10.995Z,5.76
2023-03-06T12:18:11.957Z,5.77
2023-03-06T12:19:10.898Z,5.77
2023-03-06T12:21:10.829Z,5.66
2023-03-06T12:22:10.790Z,5.73
2023-03-06T12:31:10.494Z,4.62
2023-03-06T13:28:10.200Z,15.40
2023-03-06T13:32:10.241Z,14.93
2023-03-06T13:49:10.248Z,12.42
2023-03-06T14:06:10.312Z,7.43
2023-03-06T14:09:10.336Z,6.86
2023-03-06T14:10:10.468Z,6.66
2023-03-06T14:11:10.354Z,6.39
2023-03-06T14:12:10.501Z,6.12
2023-03-06T14:13:10.366Z,6.06
2023-03-06T14:14:10.340Z,6.11
2023-03-06T14:15:10.402Z,5.61
2023-03-06T14:16:10.475Z,5.30
2023-03-06T14:17:10.385Z,5.49
2023-03-06T14:18:10.413Z,4.86
2023-03-06T14:19:10.396Z,4.37
2023-03-06T14:20:10.537Z,4.53
2023-03-06T14:21:10.457Z,2.76
2023-03-06T14:22:10.598Z,2.33
2023-03-06T14:23:10.515Z,2.30
2023-03-06T14:24:10.559Z,2.57
2023-03-06T14:25:10.520Z,2.78
2023-03-06T14:26:10.547Z,3.02
2023-03-06T14:27:10.554Z,2.87
2023-03-06T14:28:14.324Z,2.88
2023-03-06T14:29:10.541Z,3.22
2023-03-06T14:30:10.570Z,3.61
2023-03-06T14:31:10.510Z,3.60
2023-03-06T14:32:10.542Z,3.22
2023-03-06T14:33:10.437Z,3.23
2023-03-06T14:34:10.409Z,3.40
2023-03-06T14:35:10.376Z,2.26
2023-03-06T14:36:10.334Z,1.56
2023-03-06T14:37:10.287Z,1.26
2023-03-06T14:38:10.259Z,1.01
2023-03-06T14:39:10.231Z,0.82
2023-03-06T14:40:10.208Z,1.28
2023-03-06T14:41:11.730Z,1.81
2023-03-06T14:42:10.443Z,2.33
2023-03-06T14:43:10.431Z,2.68
2023-03-06T14:44:10.482Z,2.77
2023-03-06T14:45:10.480Z,2.80
2023-03-06T14:46:10.512Z,2.87
2023-03-06T14:47:10.514Z,2.97
2023-03-06T14:48:10.543Z,2.97
2023-03-06T14:49:10.513Z,3.36
2023-03-06T14:50:10.522Z,3.81
2023-03-06T14:51:10.529Z,3.98
2023-03-06T14:52:10.506Z,4.30
2023-03-06T14:53:10.539Z,4.31
2023-03-06T14:54:10.546Z,4.33
2023-03-06T14:55:10.510Z,4.64
2023-03-06T14:56:10.489Z,4.75
2023-03-06T14:57:10.463Z,4.93
2023-03-06T14:58:10.467Z,5.36
2023-03-06T14:59:10.440Z,5.64
2023-03-06T15:00:10.465Z,5.92
2023-03-06T15:01:10.450Z,6.38
2023-03-06T15:02:10.421Z,6.42
2023-03-06T15:03:10.441Z,6.67
2023-03-06T15:04:10.424Z,6.97
2023-03-06T15:05:10.389Z,7.75
2023-03-06T15:06:10.394Z,8.15
2023-03-06T15:07:10.442Z,8.60
2023-03-06T15:08:10.373Z,9.03
2023-03-06T15:09:10.331Z,9.58
2023-03-06T15:10:10.435Z,9.64
2023-03-06T15:11:10.350Z,10.27
2023-03-06T15:12:10.327Z,10.79
2023-03-06T15:13:10.337Z,10.99
2023-03-06T15:14:10.293Z,6.71
2023-03-06T15:15:10.540Z,0.77
2023-03-06T15:16:10.404Z,0.43
2023-03-06T15:17:10.393Z,0.48
2023-03-06T15:18:10.419Z,0.39
2023-03-06T15:19:10.403Z,0.34
2023-03-06T15:20:10.430Z,0.34
2023-03-06T15:21:10.461Z,0.34
2023-03-06T15:22:10.483Z,0.37
2023-03-06T15:23:10.505Z,0.54
2023-03-06T15:24:10.544Z,0.75
2023-03-06T15:25:10.555Z,1.18
2023-03-06T15:26:10.644Z,2.26
2023-03-06T15:27:10.601Z,3.40
2023-03-06T15:28:10.624Z,4.57
2023-03-06T15:29:11.022Z,5.02
2023-03-06T15:30:11.543Z,5.61
2023-03-06T15:31:10.745Z,6.27
2023-03-06T15:32:10.705Z,6.69
2023-03-06T15:33:10.773Z,7.77
2023-03-06T15:34:10.663Z,8.31
2023-03-06T15:35:10.670Z,9.10
2023-03-06T15:36:10.724Z,9.65
2023-03-06T15:37:11.484Z,10.65
2023-03-06T15:38:10.750Z,11.24
2023-03-06T15:39:10.790Z,12.11
2023-03-06T15:40:10.769Z,13.04
2023-03-06T15:41:10.822Z,13.82
2023-03-06T15:42:10.823Z,14.26
2023-03-06T15:43:10.857Z,15.13
2023-03-06T15:44:10.908Z,16.78
2023-03-06T15:45:10.906Z,17.25
2023-03-06T15:46:10.900Z,18.20
2023-03-06T15:47:10.880Z,18.99
2023-03-06T15:48:10.893Z,19.23
2023-03-06T15:49:10.891Z,20.54
2023-03-06T15:50:10.905Z,21.15
2023-03-06T15:51:10.911Z,22.22
2023-03-06T15:52:10.951Z,23.34
2023-03-06T15:53:10.924Z,23.58
2023-03-06T15:54:12.597Z,24.17
2023-03-06T15:55:10.893Z,24.93
2023-03-06T15:56:10.932Z,26.77
2023-03-06T15:57:10.902Z,27.33
2023-03-06T15:58:10.908Z,27.71
2023-03-06T15:59:10.889Z,28.11
2023-03-06T16:00:25.311Z,28.84
2023-03-06T16:01:11.896Z,28.91
2023-03-06T16:02:10.849Z,29.08
2023-03-06T16:03:10.785Z,29.61
2023-03-06T16:04:10.816Z,30.17
2023-03-06T16:05:10.762Z,30.24
2023-03-06T16:06:10.693Z,28.70
2023-03-06T16:07:10.682Z,28.82
2023-03-06T16:08:10.669Z,30.17
2023-03-06T16:09:10.661Z,30.81
2023-03-06T16:10:10.641Z,32.85
2023-03-06T16:11:10.581Z,32.89
2023-03-06T16:12:10.569Z,32.03
2023-03-06T16:13:10.569Z,33.16
2023-03-06T16:14:10.544Z,34.98
2023-03-06T16:15:10.473Z,35.86
2023-03-06T16:16:10.457Z,35.73
2023-03-06T16:17:10.413Z,11.84
2023-03-06T16:18:10.411Z,2.77
2023-03-06T16:19:13.978Z,1.85
2023-03-06T16:20:11.386Z,1.37
2023-03-06T16:21:10.376Z,1.05
2023-03-06T16:22:10.357Z,1.20
2023-03-06T16:23:10.408Z,0.99
2023-03-06T16:24:10.380Z,0.71
2023-03-06T16:25:10.340Z,0.67
2023-03-06T16:26:10.340Z,0.51
2023-03-06T16:27:10.353Z,0.53
2023-03-06T16:28:10.338Z,0.54
2023-03-06T16:29:10.333Z,0.54
2023-03-06T16:30:10.339Z,0.50
2023-03-06T16:31:10.372Z,0.50
2023-03-06T16:32:10.384Z,0.50
2023-03-06T16:33:10.357Z,0.38
2023-03-06T16:34:10.358Z,0.37
2023-03-06T16:35:10.351Z,0.50
2023-03-06T16:36:10.395Z,0.57
2023-03-06T16:37:10.416Z,0.63
2023-03-06T16:38:10.505Z,0.47
2023-03-06T16:39:10.528Z,0.59
2023-03-06T16:40:10.628Z,0.83
2023-03-06T16:41:10.698Z,1.08
2023-03-06T16:42:10.719Z,1.53
2023-03-06T16:43:10.818Z,2.64
2023-03-06T16:44:10.799Z,2.80
2023-03-06T16:45:10.838Z,4.01
2023-03-06T16:46:11.043Z,5.61
2023-03-06T16:47:10.861Z,7.98
2023-03-06T16:48:10.906Z,9.14